Time;durP1;ratioP1;P1;durP2;ratioP2;P2;SDS_P1;SDS_P2;PMS_P1;PMS_P2;Temp;Humidity;BMP_temperature;BMP_pressure;BME280_temperature;BME280_humidity;BME280_pressure;Samples;Min_cycle;Max_cycle;Signal;HPM_P1;HPM_P2
2022/06/09 00:01:58;;;;;;;7.58;4.47;;;23.70;64.00;;;;;;1885168;76;21588;-65
2022/06/09 00:04:28;;;;;;;;;;;23.70;63.80;;;;;;1888086;76;21117;-65
2022/06/09 00:07:03;;;;;;;8.28;4.30;;;23.70;63.60;;;;;;1855043;77;20143;-65
2022/06/09 00:09:35;;;;;;;7.30;4.28;;;23.60;63.30;;;;;;1893668;76;21027;-64
2022/06/09 00:12:05;;;;;;;8.88;4.80;;;23.50;63.70;;;;;;1893543;76;21118;-64
2022/06/09 00:14:35;;;;;;;7.97;4.47;;;23.50;64.10;;;;;;1893606;76;21035;-64
2022/06/09 00:17:04;;;;;;;9.13;5.45;;;23.40;64.30;;;;;;1893551;76;21027;-64
2022/06/09 00:19:34;;;;;;;12.95;5.28;;;23.40;64.30;;;;;;1893707;76;21112;-64
2022/06/09 00:22:03;;;;;;;11.30;5.08;;;23.50;64.30;;;;;;1893633;76;21100;-64
2022/06/09 00:24:33;;;;;;;11.73;5.33;;;23.40;64.40;;;;;;1893524;76;21109;-64
2022/06/09 00:27:02;;;;;;;12.28;5.12;;;23.40;64.50;;;;;;1893526;76;21011;-64
2022/06/09 00:29:31;;;;;;;9.45;5.00;;;23.40;64.70;;;;;;1904759;75;21105;-64
2022/06/09 00:32:00;;;;;;;12.10;5.03;;;23.40;64.70;;;;;;1910049;75;21050;-64
2022/06/09 00:34:29;;;;;;;7.65;4.40;;;23.40;64.80;;;;;;1840952;78;21180;-64
2022/06/09 00:36:58;;;;;;;16.52;4.75;;;23.40;64.90;;;;;;1840859;78;21147;-64
2022/06/09 00:39:26;;;;;;;9.10;4.87;;;23.40;64.90;;;;;;1873759;76;21122;-64
2022/06/09 00:41:56;;;;;;;9.50;5.08;;;23.30;64.70;;;;;;1888780;76;21019;-64
2022/06/09 00:44:27;;;;;;;10.88;4.22;;;23.30;64.90;;;;;;1888882;76;21018;-64
2022/06/09 00:47:08;;;;;;;7.58;3.85;;;23.20;65.30;;;;;;1888875;76;21039;-64
2022/06/09 00:49:40;;;;;;;10.48;6.58;;;23.10;65.60;;;;;;1888758;76;21466;-64
2022/06/09 00:52:11;;;;;;;15.43;6.33;;;23.10;65.30;;;;;;1888721;76;21469;-64
2022/06/09 00:54:43;;;;;;;10.23;4.90;;;23.00;65.60;;;;;;1888832;76;21329;-64
2022/06/09 00:57:17;;;;;;;12.85;5.87;;;22.90;65.60;;;;;;1888796;76;21536;-64
2022/06/09 00:59:49;;;;;;;11.33;6.37;;;22.90;65.70;;;;;;1888906;76;21121;-64
2022/06/09 01:02:20;;;;;;;13.20;5.47;;;22.80;65.70;;;;;;1889005;76;21023;-64
2022/06/09 01:04:51;;;;;;;11.15;5.58;;;22.70;65.80;;;;;;1888796;76;21039;-63
2022/06/09 01:07:26;;;;;;;11.25;5.25;;;22.70;66.00;;;;;;1888764;76;21587;-63
2022/06/09 01:09:55;;;;;;;11.83;6.12;;;22.70;66.20;;;;;;1889019;76;21031;-63
2022/06/09 01:12:30;;;;;;;9.45;4.67;;;22.70;66.20;;;;;;1888745;76;21451;-63
2022/06/09 01:14:59;;;;;;;;;;;22.70;66.30;;;;;;1891633;76;21529;-64
2022/06/09 01:17:37;;;;;;;9.63;4.95;;;22.70;66.20;;;;;;1888801;76;20379;-64
2022/06/09 01:20:17;;;;;;;15.05;5.50;;;22.60;66.20;;;;;;1888310;76;21490;-64
2022/06/09 01:23:18;;;;;;;11.08;4.90;;;22.60;66.10;;;;;;1888162;76;21490;-64
2022/06/09 01:25:50;;;;;;;11.12;5.65;;;22.60;65.80;;;;;;1888774;76;21031;-64
2022/06/09 01:28:54;;;;;;;11.10;5.12;;;22.50;66.60;;;;;;1888837;76;21042;-64
2022/06/09 01:31:38;;;;;;;16.17;6.37;;;22.50;66.90;;;;;;1893472;76;21053;-64
2022/06/09 01:34:24;;;;;;;11.83;6.22;;;22.50;66.70;;;;;;1893124;76;21037;-63
2022/06/09 01:37:08;;;;;;;18.77;6.97;;;22.60;66.70;;;;;;1892985;76;21013;-64
2022/06/09 01:39:58;;;;;;;11.60;6.90;;;22.60;66.60;;;;;;1893490;76;21123;-64
2022/06/09 01:42:42;;;;;;;12.40;6.35;;;22.50;66.70;;;;;;1893421;76;21009;-64
2022/06/09 01:45:32;;;;;;;14.33;6.92;;;22.50;66.90;;;;;;1893395;76;21084;-64
2022/06/09 01:48:16;;;;;;;12.33;7.78;;;22.60;67.10;;;;;;1924729;74;21198;-64
2022/06/09 01:50:53;;;;;;;13.75;5.42;;;22.60;66.90;;;;;;1924974;74;21029;-64
2022/06/09 01:53:34;;;;;;;12.23;5.80;;;22.60;67.00;;;;;;1924157;74;21554;-65
2022/06/09 01:56:15;;;;;;;10.40;5.47;;;22.60;67.40;;;;;;1923633;74;21049;-65
2022/06/09 01:58:46;;;;;;;13.88;5.90;;;22.60;67.00;;;;;;1924695;74;21110;-65
2022/06/09 02:01:17;;;;;;;10.93;5.20;;;22.60;67.10;;;;;;1924745;74;21087;-65
2022/06/09 02:03:48;;;;;;;8.75;5.50;;;22.60;67.30;;;;;;1924693;74;21049;-65
2022/06/09 02:06:18;;;;;;;11.20;6.03;;;22.60;67.60;;;;;;1924660;74;21013;-65
2022/06/09 02:08:47;;;;;;;11.75;5.92;;;22.60;67.40;;;;;;1924646;74;21107;-65
2022/06/09 02:11:17;;;;;;;12.47;6.00;;;22.60;67.30;;;;;;1924805;74;21061;-65
2022/06/09 02:13:48;;;;;;;12.40;6.50;;;22.60;67.60;;;;;;1924636;74;21026;-65
2022/06/09 02:16:21;;;;;;;11.85;5.30;;;22.60;67.60;;;;;;1924668;74;21088;-65
2022/06/09 02:18:53;;;;;;;13.10;6.22;;;22.60;67.70;;;;;;1924746;74;21025;-65
2022/06/09 02:21:31;;;;;;;15.13;5.97;;;22.60;67.70;;;;;;1924573;74;21087;-65
2022/06/09 02:24:00;;;;;;;13.90;5.58;;;22.70;67.50;;;;;;1923914;74;21021;-65
2022/06/09 02:29:19;;;;;;;14.53;6.50;;;22.80;67.50;;;;;;1928280;73;21085;-64
2022/06/09 02:31:48;;;;;;;13.10;5.42;;;22.80;67.40;;;;;;1928199;74;21023;-65
2022/06/09 02:34:18;;;;;;;12.68;5.90;;;22.80;67.10;;;;;;1928277;73;21101;-64
2022/06/09 02:36:47;;;;;;;9.33;4.97;;;22.80;67.00;;;;;;1893433;76;21095;-64
2022/06/09 02:39:16;;;;;;;8.55;4.25;;;22.70;67.00;;;;;;1893519;74;21162;-64
2022/06/09 02:41:45;;;;;;;21.25;5.83;;;22.70;67.20;;;;;;1893482;75;21053;-64
2022/06/09 02:44:14;;;;;;;15.18;5.28;;;22.80;67.10;;;;;;1893348;76;21088;-64
2022/06/09 02:46:43;;;;;;;9.98;4.50;;;22.80;67.10;;;;;;1893348;76;21142;-64
2022/06/09 02:49:12;;;;;;;13.32;5.53;;;22.80;66.90;;;;;;1893363;76;21053;-64
2022/06/09 02:51:42;;;;;;;7.80;4.20;;;22.90;66.80;;;;;;1893372;74;21021;-64
2022/06/09 02:54:12;;;;;;;9.73;5.20;;;22.90;66.80;;;;;;1893421;76;21115;-64
2022/06/09 02:56:42;;;;;;;17.25;5.62;;;22.90;66.80;;;;;;1893423;75;21018;-64
2022/06/09 02:59:12;;;;;;;9.23;5.92;;;22.90;66.80;;;;;;1927811;73;21037;-64
2022/06/09 03:01:42;;;;;;;12.73;5.12;;;23.00;66.90;;;;;;1893422;74;21092;-64
2022/06/09 03:04:11;;;;;;;8.15;3.87;;;23.10;66.90;;;;;;1893522;74;21130;-64
2022/06/09 03:06:40;;;;;;;7.00;4.03;;;23.10;66.70;;;;;;1893315;75;21045;-64
2022/06/09 03:09:09;;;;;;;8.85;4.40;;;23.20;66.50;;;;;;1893334;76;21046;-64
2022/06/09 03:11:38;;;;;;;7.40;4.10;;;23.20;66.40;;;;;;1893353;75;21464;-64
2022/06/09 03:14:10;;;;;;;9.10;4.47;;;23.20;66.50;;;;;;1893425;75;21139;-64
2022/06/09 03:16:38;;;;;;;10.63;4.12;;;23.20;66.50;;;;;;1893510;75;21052;-64
2022/06/09 03:19:07;;;;;;;13.65;4.40;;;23.20;66.20;;;;;;1893394;75;21033;-64
2022/06/09 03:21:36;;;;;;;11.30;4.45;;;23.30;66.50;;;;;;1893388;75;21107;-64
2022/06/09 03:24:06;;;;;;;8.00;4.37;;;23.40;66.40;;;;;;1893457;75;21017;-64
2022/06/09 03:26:35;;;;;;;8.90;4.70;;;23.40;66.00;;;;;;1893396;76;21119;-64
2022/06/09 03:29:04;;;;;;;8.85;4.78;;;23.50;65.80;;;;;;1893270;76;21549;-64
2022/06/09 03:31:34;;;;;;;16.75;5.65;;;23.60;65.50;;;;;;1893453;76;21114;-64
2022/06/09 03:34:03;;;;;;;10.80;5.78;;;23.70;65.60;;;;;;1893292;76;21140;-64
2022/06/09 03:36:33;;;;;;;12.35;6.53;;;23.80;65.50;;;;;;1893423;76;21436;-64
2022/06/09 03:39:02;;;;;;;9.60;5.67;;;23.90;65.20;;;;;;1893510;76;21101;-64
2022/06/09 03:41:31;;;;;;;78.10;15.53;;;24.00;64.90;;;;;;1893580;76;21098;-64
2022/06/09 03:44:00;;;;;;;12.60;5.95;;;24.00;64.40;;;;;;1928332;74;21079;-64
2022/06/09 03:46:29;;;;;;;9.18;5.35;;;24.00;64.00;;;;;;1894956;76;21109;-64
2022/06/09 03:49:00;;;;;;;11.03;4.97;;;24.00;64.10;;;;;;1895040;75;21028;-64
2022/06/09 03:51:29;;;;;;;11.50;4.67;;;24.00;64.10;;;;;;1888134;76;21013;-64
2022/06/09 03:53:58;;;;;;;13.53;4.92;;;24.10;63.90;;;;;;1927049;74;21005;-64
2022/06/09 03:56:27;;;;;;;12.90;4.97;;;24.10;63.80;;;;;;1928243;74;20992;-64
2022/06/09 03:58:56;;;;;;;10.82;5.28;;;24.20;63.80;;;;;;1928320;73;21024;-64
2022/06/09 04:01:25;;;;;;;10.13;5.50;;;24.20;63.60;;;;;;1928260;73;21016;-64
2022/06/09 04:03:54;;;;;;;11.38;5.60;;;24.30;63.40;;;;;;1928254;74;21101;-64
2022/06/09 04:06:25;;;;;;;14.93;7.70;;;24.30;63.20;;;;;;1928294;74;21058;-64
2022/06/09 04:08:54;;;;;;;15.95;5.72;;;24.20;63.10;;;;;;1928325;74;21020;-64
2022/06/09 04:11:24;;;;;;;11.25;5.70;;;24.20;63.10;;;;;;1928180;74;21132;-64
2022/06/09 04:13:53;;;;;;;12.85;6.35;;;24.20;63.50;;;;;;1928365;74;21167;-64
2022/06/09 04:16:25;;;;;;;15.80;6.22;;;24.20;63.80;;;;;;1928267;74;21021;-64
2022/06/09 04:18:55;;;;;;;14.65;6.20;;;24.20;63.70;;;;;;1928322;74;21086;-64
2022/06/09 04:21:24;;;;;;;8.53;5.62;;;24.30;63.50;;;;;;1928303;74;21082;-64
2022/06/09 04:23:54;;;;;;;12.30;5.40;;;24.30;63.40;;;;;;1928221;74;21071;-64
2022/06/09 04:26:26;;;;;;;14.18;4.35;;;24.30;63.40;;;;;;1928268;74;21145;-64
2022/06/09 04:28:56;;;;;;;9.28;4.08;;;24.20;63.20;;;;;;1924273;74;21131;-64
2022/06/09 04:31:25;;;;;;;11.15;4.50;;;24.30;63.30;;;;;;1885402;75;21126;-64
2022/06/09 04:33:54;;;;;;;13.58;5.97;;;24.30;63.50;;;;;;1918074;75;21024;-64
2022/06/09 04:36:23;;;;;;;13.83;5.58;;;24.40;63.50;;;;;;1885370;75;21187;-64
2022/06/09 04:38:52;;;;;;;11.03;5.72;;;24.40;63.40;;;;;;1917972;75;21013;-64
2022/06/09 04:41:21;;;;;;;12.23;5.42;;;24.50;63.40;;;;;;1885335;75;21541;-64
2022/06/09 04:43:50;;;;;;;14.20;5.85;;;24.50;63.50;;;;;;1917953;75;21083;-64
2022/06/09 04:46:22;;;;;;;16.73;6.05;;;24.50;63.60;;;;;;1885271;76;21041;-64
2022/06/09 04:48:51;;;;;;;19.70;8.33;;;24.50;63.70;;;;;;1918078;74;21083;-64
2022/06/09 04:51:21;;;;;;;14.30;5.75;;;24.50;63.60;;;;;;1885393;75;21056;-64
2022/06/09 04:53:51;;;;;;;28.07;7.17;;;24.50;63.60;;;;;;1917933;75;21521;-64
2022/06/09 04:56:22;;;;;;;6.87;4.75;;;24.50;63.70;;;;;;1885289;75;21052;-64
2022/06/09 04:58:51;;;;;;;13.18;5.37;;;24.40;63.70;;;;;;1917951;75;21428;-64
2022/06/09 05:01:27;;;;;;;10.35;4.05;;;24.30;63.90;;;;;;1918059;73;21025;-64
2022/06/09 05:03:57;;;;;;;7.40;4.05;;;24.30;64.30;;;;;;1918025;73;21025;-64
2022/06/09 05:06:27;;;;;;;12.25;4.75;;;24.30;64.40;;;;;;1885312;75;21029;-65
2022/06/09 05:08:57;;;;;;;5.30;3.98;;;24.40;64.40;;;;;;1917826;75;21072;-64
2022/06/09 05:11:27;;;;;;;7.00;5.08;;;24.60;64.30;;;;;;1885216;75;21036;-64
2022/06/09 05:13:56;;;;;;;13.93;4.20;;;24.70;63.80;;;;;;1917833;73;21083;-64
2022/06/09 05:16:25;;;;;;;8.00;4.12;;;24.80;63.40;;;;;;1885198;76;21013;-64
2022/06/09 05:18:54;;;;;;;8.30;4.05;;;24.90;62.90;;;;;;1917708;74;21024;-64
2022/06/09 05:21:42;;;;;;;7.72;3.45;;;25.00;63.50;;;;;;1885227;76;21032;-64
2022/06/09 05:24:12;;;;;;;8.23;4.28;;;25.10;62.70;;;;;;1888877;75;21114;-64
2022/06/09 05:26:41;;;;;;;13.00;6.40;;;25.10;62.70;;;;;;1861631;76;21036;-64
2022/06/09 05:29:10;;;;;;;7.97;4.30;;;25.30;62.40;;;;;;1855569;77;21032;-64
2022/06/09 05:31:40;;;;;;;13.22;4.20;;;25.50;62.00;;;;;;1861674;76;21034;-64
2022/06/09 05:34:10;;;;;;;11.35;5.03;;;25.50;61.70;;;;;;1855308;77;21013;-64
2022/06/09 05:36:39;;;;;;;17.10;6.87;;;25.50;61.80;;;;;;1888690;76;21037;-64
2022/06/09 05:44:57;;;;;;;36.90;7.80;;;25.50;61.90;;;;;;1769071;80;21090;-64
2022/06/09 05:47:45;;;;;;;16.23;5.00;;;25.50;61.90;;;;;;1850606;75;21048;-64
2022/06/09 05:50:14;;;;;;;11.57;4.35;;;25.60;61.50;;;;;;1780191;81;21064;-64
2022/06/09 05:52:43;;;;;;;8.40;4.72;;;25.70;61.00;;;;;;1740413;82;21144;-64
2022/06/09 05:55:12;;;;;;;11.63;5.03;;;25.80;60.90;;;;;;1740299;82;21158;-64
2022/06/09 05:57:42;;;;;;;17.85;5.45;;;25.80;60.70;;;;;;1740408;82;21076;-64
2022/06/09 06:00:12;;;;;;;13.18;5.40;;;25.80;60.30;;;;;;1740350;82;21127;-64
2022/06/09 06:02:44;;;;;;;15.85;5.65;;;25.80;60.20;;;;;;1740601;82;21080;-64
2022/06/09 06:07:44;;;;;;;18.17;5.25;;;26.10;60.20;;;;;;1706975;82;21080;-64
2022/06/09 06:10:13;;;;;;;19.65;6.00;;;26.10;60.10;;;;;;1740384;81;21068;-63
2022/06/09 06:12:42;;;;;;;24.72;5.28;;;26.20;60.90;;;;;;1740384;81;21068;-64
2022/06/09 06:15:11;;;;;;;14.68;5.62;;;26.30;60.10;;;;;;1740478;82;21072;-64
2022/06/09 06:17:40;;;;;;;16.20;5.85;;;26.30;60.00;;;;;;1740506;82;21089;-64
2022/06/09 06:20:10;;;;;;;10.80;5.20;;;26.40;60.00;;;;;;1740343;82;21049;-64
2022/06/09 06:22:40;;;;;;;14.90;5.30;;;26.50;60.00;;;;;;1740419;82;21080;-64
2022/06/09 06:25:10;;;;;;;10.13;5.42;;;26.60;60.00;;;;;;1740269;81;21135;-64
2022/06/09 06:27:39;;;;;;;11.57;5.83;;;26.70;60.10;;;;;;1740334;82;21226;-64
2022/06/09 06:30:09;;;;;;;10.18;5.65;;;26.70;60.60;;;;;;1740384;81;21107;-64
2022/06/09 06:32:38;;;;;;;13.70;5.75;;;26.80;60.30;;;;;;1740316;81;21076;-64
2022/06/09 06:35:08;;;;;;;8.28;6.25;;;26.80;60.20;;;;;;1740496;82;21127;-64
2022/06/09 06:37:37;;;;;;;11.00;5.60;;;26.90;60.50;;;;;;1740441;82;21068;-64
2022/06/09 06:40:07;;;;;;;13.28;6.33;;;26.90;60.50;;;;;;1740522;82;21107;-64
2022/06/09 06:42:36;;;;;;;15.80;7.20;;;26.90;60.60;;;;;;1740611;82;21072;-64
2022/06/09 06:45:06;;;;;;;14.58;8.23;;;27.00;60.50;;;;;;1740483;81;21107;-64
2022/06/09 06:47:35;;;;;;;14.95;6.53;;;27.00;60.60;;;;;;1740422;82;21072;-64
2022/06/09 06:50:05;;;;;;;12.90;5.83;;;27.00;60.60;;;;;;1769230;80;21087;-63
2022/06/09 06:52:34;;;;;;;9.60;4.85;;;27.10;60.40;;;;;;1780616;80;21076;-65
2022/06/09 06:55:04;;;;;;;13.08;6.03;;;27.20;59.60;;;;;;1780570;80;21072;-64
2022/06/09 06:57:33;;;;;;;18.37;5.80;;;27.30;59.70;;;;;;1780636;80;21080;-64
2022/06/09 07:00:03;;;;;;;13.58;5.10;;;27.30;59.10;;;;;;1780434;79;21072;-64
2022/06/09 07:02:32;;;;;;;12.28;5.05;;;27.30;58.90;;;;;;1780566;80;21060;-65
2022/06/09 07:05:01;;;;;;;9.43;5.60;;;27.30;59.00;;;;;;1780534;80;21052;-65
2022/06/09 07:07:30;;;;;;;10.48;5.65;;;27.40;58.90;;;;;;1780439;79;21052;-64
2022/06/09 07:09:59;;;;;;;12.15;4.40;;;27.40;59.10;;;;;;1780490;79;21125;-64
2022/06/09 07:12:29;;;;;;;11.88;4.60;;;27.50;58.80;;;;;;1780521;79;21181;-64
2022/06/09 07:14:58;;;;;;;10.23;5.22;;;27.50;58.50;;;;;;1780580;80;21063;-64
2022/06/09 07:17:27;;;;;;;12.60;5.45;;;27.50;58.50;;;;;;1780510;80;21122;-64
2022/06/09 07:19:56;;;;;;;10.28;4.62;;;27.50;58.50;;;;;;1780550;80;21056;-65
2022/06/09 07:22:26;;;;;;;10.08;4.95;;;27.50;58.60;;;;;;1780555;80;21043;-65
2022/06/09 07:24:56;;;;;;;9.13;4.05;;;27.60;58.50;;;;;;1780502;80;21110;-65
2022/06/09 07:27:25;;;;;;;11.83;4.90;;;27.70;58.40;;;;;;1780505;80;21200;-64
2022/06/09 07:30:14;;;;;;;9.80;4.67;;;27.80;58.50;;;;;;1780605;79;21122;-64
2022/06/09 07:32:43;;;;;;;6.08;4.70;;;27.90;58.10;;;;;;1921570;75;21045;-65
2022/06/09 07:35:15;;;;;;;7.92;5.62;;;28.00;58.30;;;;;;1966396;72;21018;-64
2022/06/09 07:37:45;;;;;;;7.78;5.10;;;28.00;57.40;;;;;;1966516;73;21413;-65
2022/06/09 07:40:15;;;;;;;11.70;5.10;;;28.00;57.50;;;;;;1888839;76;21002;-64
2022/06/09 07:42:44;;;;;;;9.83;5.25;;;27.90;57.40;;;;;;1966558;72;21429;-64
2022/06/09 07:45:13;;;;;;;8.75;4.83;;;27.80;57.80;;;;;;1966532;73;21021;-64
2022/06/09 07:47:42;;;;;;;9.63;5.33;;;27.70;58.00;;;;;;1888793;76;21073;-64
2022/06/09 07:50:13;;;;;;;7.12;4.60;;;27.60;58.30;;;;;;1966368;73;21014;-64
2022/06/09 07:52:43;;;;;;;9.28;5.15;;;27.50;58.50;;;;;;1966423;72;21101;-64
2022/06/09 07:55:13;;;;;;;11.03;4.95;;;27.40;58.60;;;;;;1886979;76;21033;-64
2022/06/09 07:57:42;;;;;;;6.20;4.33;;;27.40;59.20;;;;;;1966424;73;21104;-65
2022/06/09 08:00:14;;;;;;;11.18;4.65;;;27.40;59.30;;;;;;1888771;75;21018;-65
2022/06/09 08:02:44;;;;;;;9.93;4.95;;;27.40;59.00;;;;;;1966499;72;21009;-64
2022/06/09 08:05:16;;;;;;;5.70;4.20;;;27.30;59.10;;;;;;1882227;76;21113;-64
2022/06/09 08:08:05;;;;;;;9.98;3.95;;;27.30;59.60;;;;;;1955683;73;21079;-64
2022/06/09 08:10:36;;;;;;;17.20;5.47;;;27.20;59.80;;;;;;1879882;75;21128;-64
2022/06/09 08:13:05;;;;;;;9.83;5.17;;;27.20;60.20;;;;;;1867508;76;21103;-64
2022/06/09 08:15:35;;;;;;;7.50;3.92;;;27.20;60.20;;;;;;1871205;76;21041;-64
2022/06/09 08:18:04;;;;;;;7.72;4.60;;;27.30;60.00;;;;;;1868822;76;21006;-64
2022/06/09 08:20:36;;;;;;;9.40;5.12;;;27.30;59.60;;;;;;1871447;76;21046;-64
2022/06/09 08:23:08;;;;;;;9.73;4.50;;;27.30;59.80;;;;;;1867649;76;21098;-64
2022/06/09 08:25:39;;;;;;;6.62;5.22;;;27.40;59.70;;;;;;1869595;76;21041;-64
2022/06/09 08:28:08;;;;;;;6.08;4.85;;;27.50;59.60;;;;;;1872871;75;21065;-64
2022/06/09 08:30:38;;;;;;;9.05;4.65;;;27.80;59.40;;;;;;1869890;76;21021;-62
2022/06/09 08:33:07;;;;;;;6.50;4.37;;;28.00;59.00;;;;;;1864313;76;21150;-63
2022/06/09 08:35:37;;;;;;;8.68;5.20;;;28.20;58.40;;;;;;1871809;76;21108;-60
2022/06/09 08:38:07;;;;;;;10.38;4.55;;;28.30;57.80;;;;;;1870168;76;21080;-61
2022/06/09 08:41:17;;;;;;;12.68;4.75;;;28.40;57.30;;;;;;1871801;76;21189;-61
2022/06/09 08:43:53;;;;;;;8.68;4.50;;;28.50;57.10;;;;;;1872849;76;21001;-61
2022/06/09 08:46:54;;;;;;;12.43;5.08;;;28.60;57.20;;;;;;1863759;76;21085;-59
2022/06/09 08:50:09;;;;;;;11.60;5.50;;;28.90;56.90;;;;;;1851885;77;21094;-62
2022/06/09 08:53:15;;;;;;;8.23;4.45;;;29.00;56.40;;;;;;1885718;74;21026;-61
2022/06/09 08:55:50;;;;;;;8.68;4.58;;;29.00;55.90;;;;;;1882967;75;21145;-62
2022/06/09 08:58:19;;;;;;;;;;;29.00;55.80;;;;;;1882555;75;21148;-62
2022/06/09 09:00:51;;;;;;;10.10;5.08;;;29.10;54.80;;;;;;1884909;74;20103;-65
2022/06/09 09:03:28;;;;;;;6.90;5.00;;;29.00;55.50;;;;;;1836733;76;21501;-62
2022/06/09 09:06:08;;;;;;;8.90;5.17;;;29.00;55.70;;;;;;1882191;75;21061;-60
2022/06/09 09:08:38;;;;;;;8.93;4.65;;;29.10;55.70;;;;;;1886247;74;21056;-62
2022/06/09 09:11:13;;;;;;;9.38;4.65;;;29.10;56.30;;;;;;1886925;75;21061;-66
2022/06/09 09:13:59;;;;;;;9.55;4.90;;;29.20;55.40;;;;;;1897336;74;21451;-64
2022/06/09 09:16:36;;;;;;;11.22;4.42;;;29.20;55.70;;;;;;1829614;78;21167;-64
2022/06/09 09:19:16;;;;;;;12.10;4.83;;;29.10;55.40;;;;;;1898408;75;21150;-65
2022/06/09 09:21:58;;;;;;;12.28;5.20;;;29.00;55.50;;;;;;1835188;77;21024;-68
2022/06/09 09:24:30;;;;;;;9.88;4.33;;;28.80;55.80;;;;;;1850878;75;21030;-64
2022/06/09 09:27:02;;;;;;;7.95;4.62;;;28.70;56.20;;;;;;1894773;75;21045;-62
2022/06/09 09:29:43;;;;;;;6.80;4.37;;;28.70;55.80;;;;;;1840195;76;21086;-63
2022/06/09 09:32:18;;;;;;;13.32;8.53;;;28.50;55.90;;;;;;1881237;74;21066;-61
2022/06/09 09:34:49;;;;;;;17.07;9.35;;;28.40;56.20;;;;;;1879023;75;21132;-59
2022/06/09 09:37:27;;;;;;;12.68;4.40;;;28.40;56.20;;;;;;1884927;75;21065;-66
2022/06/09 09:40:01;;;;;;;12.47;5.72;;;28.40;56.30;;;;;;1836152;77;21079;-63
2022/06/09 09:42:33;;;;;;;8.20;4.10;;;28.40;56.70;;;;;;1837786;77;21087;-60
2022/06/09 09:45:13;;;;;;;7.95;5.35;;;28.40;56.70;;;;;;1894287;75;21589;-61
2022/06/09 09:47:45;;;;;;;8.20;5.15;;;28.30;56.60;;;;;;1893349;75;21030;-63
2022/06/09 09:50:29;;;;;;;12.05;5.50;;;28.20;56.70;;;;;;1892176;74;21154;-61
2022/06/09 09:53:08;;;;;;;6.97;4.10;;;28.10;57.10;;;;;;1875092;76;21109;-64
2022/06/09 09:55:40;;;;;;;15.08;6.45;;;28.00;57.20;;;;;;1910578;74;21079;-60
2022/06/09 09:58:18;;;;;;;7.65;4.78;;;27.80;57.60;;;;;;1896288;74;21084;-62
2022/06/09 10:00:49;;;;;;;15.25;10.48;;;27.80;57.80;;;;;;1859418;77;21107;-61
2022/06/09 10:09:20;;;;;;;32.78;7.08;;;27.70;58.70;;;;;;1860748;77;21107;-58
2022/06/09 10:11:54;;;;;;;24.02;7.33;;;27.70;59.10;;;;;;1896043;76;21115;-58
2022/06/09 10:14:42;;;;;;;20.32;9.13;;;27.70;59.90;;;;;;1860858;77;21506;-60
2022/06/09 10:17:41;;;;;;;23.70;7.30;;;27.60;61.90;;;;;;1896359;76;21073;-59
2022/06/09 10:20:15;;;;;;;12.25;6.75;;;27.60;63.80;;;;;;1861000;77;21258;-60
2022/06/09 10:22:56;;;;;;;10.95;6.75;;;27.40;65.70;;;;;;1896326;76;21084;-61
2022/06/09 10:25:33;;;;;;;10.40;7.17;;;27.10;66.60;;;;;;1860878;77;21032;-58
2022/06/09 10:28:08;;;;;;;12.82;6.58;;;26.80;67.70;;;;;;1896619;76;21097;-62
2022/06/09 10:30:43;;;;;;;10.90;7.00;;;26.40;69.40;;;;;;1860223;77;21127;-60
2022/06/09 10:33:15;;;;;;;10.85;7.40;;;26.00;69.90;;;;;;1860383;77;21495;-62
2022/06/09 10:35:47;;;;;;;9.60;7.70;;;25.70;71.20;;;;;;1894255;76;21641;-59
2022/06/09 10:38:33;;;;;;;9.78;7.67;;;25.50;72.00;;;;;;1860596;77;21099;-61
2022/06/09 10:41:06;;;;;;;9.23;7.42;;;25.40;72.30;;;;;;1859776;77;21199;-58
2022/06/09 10:43:40;;;;;;;10.48;7.78;;;25.30;72.80;;;;;;1895323;76;21065;-58
2022/06/09 10:46:30;;;;;;;10.82;7.37;;;25.20;73.30;;;;;;1860785;77;21110;-65
2022/06/09 10:55:24;;;;;;;10.28;7.60;;;25.30;73.80;;;;;;1857152;76;21075;-62
2022/06/09 10:58:05;;;;;;;11.20;9.23;;;25.30;73.90;;;;;;1855353;76;21162;-62
2022/06/09 11:00:46;;;;;;;11.53;7.53;;;25.40;74.80;;;;;;1896314;74;21018;-62
2022/06/09 11:03:24;;;;;;;8.45;7.40;;;25.40;75.20;;;;;;1899463;75;21096;-62
2022/06/09 11:06:13;;;;;;;10.63;8.00;;;25.50;75.80;;;;;;1888084;75;21022;-64
2022/06/09 11:08:54;;;;;;;8.93;7.75;;;25.60;76.60;;;;;;1841948;76;21137;-64
2022/06/09 11:11:44;;;;;;;14.95;12.20;;;25.80;77.50;;;;;;1857593;76;21136;-65
2022/06/09 11:14:37;;;;;;;27.87;8.48;;;26.10;77.90;;;;;;1851022;76;21049;-65
2022/06/09 11:17:18;;;;;;;11.33;6.70;;;26.30;77.30;;;;;;1874007;76;21014;-60
2022/06/09 11:19:58;;;;;;;10.53;7.22;;;26.50;76.70;;;;;;1876113;76;21121;-61
2022/06/09 11:22:43;;;;;;;6.60;5.53;;;26.70;77.00;;;;;;1907309;75;21040;-61
2022/06/09 11:25:40;;;;;;;6.58;5.70;;;26.80;76.20;;;;;;1907232;75;21778;-62
2022/06/09 11:28:21;;;;;;;9.65;6.22;;;27.00;75.70;;;;;;1907599;75;21088;-64
2022/06/09 11:30:59;;;;;;;10.93;6.47;;;27.00;75.40;;;;;;1907519;75;21012;-63
2022/06/09 11:33:48;;;;;;;6.62;5.10;;;27.10;74.90;;;;;;1907672;75;20992;-62
2022/06/09 11:36:37;;;;;;;13.05;5.70;;;27.10;74.60;;;;;;1907566;75;21177;-66
2022/06/09 11:39:41;;;;;;;8.95;5.25;;;27.20;74.40;;;;;;1907614;75;21088;-64
2022/06/09 11:42:24;;;;;;;9.18;5.17;;;27.30;74.40;;;;;;1907307;75;21023;-62
2022/06/09 11:44:56;;;;;;;10.82;5.65;;;27.40;73.40;;;;;;1907619;75;21137;-59
2022/06/09 11:47:28;;;;;;;6.80;4.80;;;27.50;73.50;;;;;;1907664;75;21024;-67
2022/06/09 11:50:00;;;;;;;5.35;4.50;;;27.60;74.00;;;;;;1906821;75;21029;-65
2022/06/09 11:52:32;;;;;;;8.28;4.22;;;27.70;73.50;;;;;;1907084;75;21500;-65
2022/06/09 11:55:07;;;;;;;5.78;4.10;;;27.80;73.40;;;;;;1907611;75;21053;-71
2022/06/09 11:57:39;;;;;;;6.70;4.42;;;27.90;72.50;;;;;;1906235;74;21053;-68
2022/06/09 12:00:30;;;;;;;6.12;4.45;;;28.00;72.50;;;;;;1906701;74;21068;-68
2022/06/09 12:03:11;;;;;;;6.45;3.33;;;28.10;71.70;;;;;;1905665;74;21045;-66
2022/06/09 12:05:53;;;;;;;7.00;4.08;;;28.10;70.90;;;;;;1905949;75;21073;-66
2022/06/09 12:08:40;;;;;;;11.25;4.00;;;28.20;70.20;;;;;;1906467;74;21416;-73
2022/06/09 12:11:18;;;;;;;7.95;3.58;;;28.20;69.40;;;;;;1906355;74;21038;-64
2022/06/09 12:13:56;;;;;;;5.70;3.60;;;28.30;68.90;;;;;;1906552;74;21166;-66
2022/06/09 12:16:57;;;;;;;12.93;8.08;;;28.50;68.10;;;;;;1906419;75;21085;-66
2022/06/09 12:19:32;;;;;;;6.60;3.67;;;28.60;68.20;;;;;;1905780;75;21104;-65
2022/06/09 12:22:19;;;;;;;6.15;3.77;;;28.70;67.30;;;;;;1906590;75;21498;-65
2022/06/09 12:25:14;;;;;;;7.03;3.95;;;28.80;67.00;;;;;;1846651;77;21061;-64
2022/06/09 12:27:46;;;;;;;8.93;4.62;;;28.90;66.80;;;;;;1898573;75;21468;-65
2022/06/09 12:30:18;;;;;;;20.37;7.00;;;28.90;66.40;;;;;;1906450;74;21075;-65
2022/06/09 12:32:56;;;;;;;10.38;4.22;;;29.00;67.10;;;;;;1906299;75;21057;-65
2022/06/09 12:35:31;;;;;;;4.78;3.98;;;29.00;67.20;;;;;;1906411;74;21049;-65
2022/06/09 12:38:06;;;;;;;5.83;3.65;;;29.10;66.60;;;;;;1906400;74;21033;-62
2022/06/09 12:40:41;;;;;;;5.47;3.85;;;29.20;66.40;;;;;;1906572;74;21484;-65
2022/06/09 12:43:25;;;;;;;10.38;4.72;;;29.30;65.80;;;;;;1906039;74;21021;-65
2022/06/09 12:46:09;;;;;;;5.87;3.87;;;29.30;65.20;;;;;;1907376;74;21469;-65
2022/06/09 12:48:38;;;;;;;6.45;3.70;;;29.30;64.60;;;;;;1905656;75;21046;-65
2022/06/09 12:51:09;;;;;;;16.02;4.90;;;29.40;64.60;;;;;;1907168;75;21073;-66
2022/06/09 12:53:41;;;;;;;5.40;3.42;;;29.40;64.60;;;;;;1906514;74;21072;-65
2022/06/09 12:56:28;;;;;;;5.25;3.52;;;29.40;64.30;;;;;;1912549;74;21065;-66
2022/06/09 12:58:58;;;;;;;4.95;3.02;;;29.40;64.00;;;;;;1917039;74;21088;-66
2022/06/09 13:01:30;;;;;;;4.83;3.42;;;29.40;63.50;;;;;;1916882;73;21064;-65
2022/06/09 13:04:06;;;;;;;4.60;3.47;;;29.30;63.40;;;;;;1916908;75;20997;-66
2022/06/09 13:06:38;;;;;;;3.55;3.25;;;29.30;63.30;;;;;;1916881;75;21095;-66
2022/06/09 13:09:25;;;;;;;5.97;3.05;;;29.30;63.20;;;;;;1916564;74;21483;-65
2022/06/09 13:14:49;;;;;;;3.15;2.75;;;29.20;63.10;;;;;;1917057;74;21166;-66
2022/06/09 13:17:39;;;;;;;6.10;3.52;;;29.20;62.90;;;;;;1916937;75;21002;-65
2022/06/09 13:20:14;;;;;;;7.97;3.52;;;29.30;62.70;;;;;;1891434;75;21035;-65
2022/06/09 13:22:44;;;;;;;4.83;4.10;;;29.30;62.10;;;;;;1934950;73;21036;-65
2022/06/09 13:25:33;;;;;;;4.97;3.58;;;29.30;62.10;;;;;;1891604;76;21055;-65
2022/06/09 13:28:03;;;;;;;6.35;4.15;;;29.30;61.90;;;;;;1837182;77;21072;-64
2022/06/09 13:30:44;;;;;;;5.75;4.90;;;29.40;62.40;;;;;;1805712;79;21055;-65
2022/06/09 13:33:34;;;;;;;8.23;4.37;;;29.40;62.90;;;;;;1836787;77;21514;-64
2022/06/09 13:36:21;;;;;;;8.45;5.70;;;29.40;62.90;;;;;;1802499;78;21064;-63
2022/06/09 13:38:51;;;;;;;7.47;4.95;;;29.40;63.00;;;;;;1836891;78;21560;-64
2022/06/09 13:41:32;;;;;;;10.35;5.00;;;29.40;63.10;;;;;;1805723;79;21051;-64
2022/06/09 13:44:07;;;;;;;8.08;4.65;;;29.40;63.20;;;;;;1837276;77;21051;-64
2022/06/09 13:46:39;;;;;;;6.12;4.53;;;29.30;63.40;;;;;;1800145;79;21157;-64